createdAt,value
2019-05-26T00:01:10.138Z,100603.31
2019-05-26T00:03:38.548Z,100604.08
2019-05-26T00:06:06.954Z,100598.71
2019-05-26T00:08:35.419Z,100594.27
2019-05-26T00:11:03.827Z,100589.53
2019-05-26T00:13:32.267Z,100593.58
2019-05-26T00:16:00.771Z,100585.09
2019-05-26T00:18:33.122Z,100587.52
2019-05-26T00:20:59.320Z,100579.92
2019-05-26T00:23:27.904Z,100582.73
2019-05-26T00:25:56.334Z,100578.69
2019-05-26T00:28:24.766Z,100572.84
2019-05-26T00:30:53.186Z,100570.12
2019-05-26T00:33:21.676Z,100570.19
2019-05-26T00:35:50.091Z,100571.51
2019-05-26T00:38:18.519Z,100567.42
2019-05-26T00:40:47.510Z,100565.74
2019-05-26T00:43:15.924Z,100567.42
2019-05-26T00:45:44.352Z,100562.83
2019-05-26T00:48:12.995Z,100560.68
2019-05-26T00:50:41.426Z,100559.34
2019-05-26T00:53:09.903Z,100556.70
2019-05-26T00:55:38.321Z,100544.41
2019-05-26T00:58:06.800Z,100552.25
2019-05-26T01:00:43.478Z,100548.49
2019-05-26T01:03:12.597Z,100547.44
2019-05-26T01:05:41.486Z,100550.31
2019-05-26T01:08:10.125Z,100539.83
2019-05-26T01:10:38.614Z,100535.38
2019-05-26T01:13:07.460Z,100538.03
2019-05-26T01:15:36.047Z,100528.23
2019-05-26T01:18:05.693Z,100529.19
2019-05-26T01:20:34.101Z,100527.89
2019-05-26T01:23:02.564Z,100529.20
2019-05-26T01:25:30.988Z,100524.67
2019-05-26T01:27:59.384Z,100523.17
2019-05-26T01:30:38.580Z,100516.00
2019-05-26T01:33:07.522Z,100518.84
2019-05-26T01:35:39.615Z,100517.12
2019-05-26T01:38:22.641Z,100518.95
2019-05-26T01:40:43.715Z,100505.30
2019-05-26T01:43:12.720Z,100508.49
2019-05-26T01:45:41.505Z,100502.11
2019-05-26T01:48:10.010Z,100506.28
2019-05-26T01:50:38.569Z,100501.53
2019-05-26T01:53:07.151Z,100499.68
2019-05-26T01:55:35.625Z,100503.98
2019-05-26T01:58:04.508Z,100505.58
2019-05-26T02:00:33.094Z,100496.62
2019-05-26T02:03:01.504Z,100500.22
2019-05-26T02:05:29.904Z,100503.64
2019-05-26T02:07:58.313Z,100503.72
2019-05-26T02:10:26.708Z,100496.23
2019-05-26T02:12:55.118Z,100496.05
2019-05-26T02:15:24.704Z,100496.33
2019-05-26T02:17:53.117Z,100492.08
2019-05-26T02:20:21.761Z,100487.80
2019-05-26T02:22:50.177Z,100483.38
2019-05-26T02:25:19.221Z,100484.81
2019-05-26T02:27:47.631Z,100485.84
2019-05-26T02:30:16.166Z,100479.21
2019-05-26T02:32:44.567Z,100481.83
2019-05-26T02:35:14.212Z,100481.83
2019-05-26T02:37:42.621Z,100472.19
2019-05-26T02:40:13.483Z,100473.03
2019-05-26T02:42:41.886Z,100476.82
2019-05-26T02:45:12.061Z,100472.38
2019-05-26T02:47:40.480Z,100467.45
2019-05-26T02:50:09.336Z,100472.50
2019-05-26T02:52:37.761Z,100467.58
2019-05-26T02:55:07.403Z,100463.80
2019-05-26T02:57:35.831Z,100454.94
2019-05-26T03:00:08.970Z,100459.28
2019-05-26T03:02:37.558Z,100450.82
2019-05-26T03:05:11.492Z,100448.27
2019-05-26T03:07:43.193Z,100442.56
2019-05-26T03:10:15.776Z,100442.48
2019-05-26T03:12:46.050Z,100439.27
2019-05-26T03:15:14.787Z,100436.23
2019-05-26T03:17:43.285Z,100442.36
2019-05-26T03:20:13.574Z,100428.22
2019-05-26T03:22:42.823Z,100422.46
2019-05-26T03:25:12.706Z,100420.13
2019-05-26T03:27:41.288Z,100420.23
2019-05-26T03:30:10.101Z,100414.05
2019-05-26T03:32:38.527Z,100415.02
2019-05-26T03:35:08.861Z,100417.13
2019-05-26T03:37:37.257Z,100418.17
2019-05-26T03:40:08.747Z,100418.15
2019-05-26T03:42:37.200Z,100421.45
2019-05-26T03:45:08.570Z,100419.92
2019-05-26T03:47:37.002Z,100407.48
2019-05-26T03:50:06.848Z,100411.69
2019-05-26T03:52:35.271Z,100405.05
2019-05-26T03:55:04.687Z,100405.39
2019-05-26T03:57:33.100Z,100413.19
2019-05-26T04:00:01.499Z,100410.13
2019-05-26T04:02:30.086Z,100402.41
2019-05-26T04:04:58.482Z,100400.13
2019-05-26T04:07:26.899Z,100399.55
2019-05-26T04:10:04.782Z,100390.66
2019-05-26T04:12:25.456Z,100390.67
2019-05-26T04:14:53.853Z,100397.33
2019-05-26T04:17:22.301Z,100385.84
2019-05-26T04:19:50.700Z,100384.64
2019-05-26T04:22:19.131Z,100383.52
2019-05-26T04:24:47.528Z,100384.14
2019-05-26T04:27:15.943Z,100382.54
2019-05-26T04:29:44.356Z,100382.13
2019-05-26T04:32:12.749Z,100383.28
2019-05-26T04:34:41.147Z,100378.59
2019-05-26T04:37:09.555Z,100375.13
2019-05-26T04:39:37.956Z,100372.84
2019-05-26T04:42:06.359Z,100371.70
2019-05-26T04:44:34.781Z,100371.32
2019-05-26T04:47:03.170Z,100374.26
2019-05-26T04:49:31.574Z,100375.97
2019-05-26T04:51:59.986Z,100376.97
2019-05-26T04:54:28.465Z,100377.19
2019-05-26T04:56:56.876Z,100368.48
2019-05-26T04:59:25.295Z,100372.84
2019-05-26T05:01:53.697Z,100375.61
2019-05-26T05:04:22.096Z,100376.20
2019-05-26T05:06:50.488Z,100377.29
2019-05-26T05:09:18.912Z,100374.81
2019-05-26T05:11:47.298Z,100376.19
2019-05-26T05:14:15.716Z,100368.70
2019-05-26T05:16:44.097Z,100370.89
2019-05-26T05:19:12.498Z,100373.59
2019-05-26T05:21:40.904Z,100365.45
2019-05-26T05:24:09.314Z,100369.89
2019-05-26T05:26:37.715Z,100368.59
2019-05-26T05:29:06.130Z,100364.16
2019-05-26T05:31:34.584Z,100358.79
2019-05-26T05:34:03.016Z,100358.55
2019-05-26T05:36:31.434Z,100355.89
2019-05-26T05:38:59.868Z,100351.17
2019-05-26T05:41:28.285Z,100351.32
2019-05-26T05:43:56.694Z,100346.64
2019-05-26T05:46:25.350Z,100343.12
2019-05-26T05:48:53.763Z,100349.37
2019-05-26T05:51:22.160Z,100345.62
2019-05-26T05:53:50.610Z,100350.41
2019-05-26T05:56:19.080Z,100352.68
2019-05-26T05:58:47.480Z,100341.87
2019-05-26T06:01:15.885Z,100348.39
2019-05-26T06:03:44.329Z,100344.00
2019-05-26T06:06:12.800Z,100328.77
2019-05-26T06:08:41.204Z,100320.31
2019-05-26T06:11:16.459Z,100319.83
2019-05-26T06:13:39.727Z,100323.14
2019-05-26T06:16:08.128Z,100325.92
2019-05-26T06:18:36.544Z,100328.73
2019-05-26T06:21:05.479Z,100333.84
2019-05-26T06:23:36.836Z,100327.09
2019-05-26T06:26:04.185Z,100323.16
2019-05-26T06:28:32.581Z,100328.69
2019-05-26T06:31:00.985Z,100328.09
2019-05-26T06:33:29.391Z,100328.59
2019-05-26T06:35:57.792Z,100332.95
2019-05-26T06:38:26.209Z,100331.32
2019-05-26T06:40:57.108Z,100336.09
2019-05-26T06:43:24.732Z,100336.73
2019-05-26T06:45:53.123Z,100335.94
2019-05-26T06:48:21.583Z,100340.01
2019-05-26T06:50:50.008Z,100346.65
2019-05-26T06:53:18.412Z,100340.65
2019-05-26T06:55:46.830Z,100350.36
2019-05-26T06:58:15.235Z,100348.98
2019-05-26T07:00:44.390Z,100350.39
2019-05-26T07:03:12.798Z,100352.56
2019-05-26T07:05:41.291Z,100346.88
2019-05-26T07:08:09.690Z,100351.88
2019-05-26T07:10:38.113Z,100359.64
2019-05-26T07:13:06.578Z,100358.95
2019-05-26T07:15:34.998Z,100359.53
2019-05-26T07:18:03.415Z,100363.60
2019-05-26T07:20:31.871Z,100359.47
2019-05-26T07:23:00.343Z,100354.66
2019-05-26T07:25:28.751Z,100344.61
2019-05-26T07:27:57.157Z,100353.82
2019-05-26T07:30:25.632Z,100354.64
2019-05-26T07:32:54.038Z,100353.28
2019-05-26T07:35:22.458Z,100351.00
2019-05-26T07:37:50.858Z,100353.30
2019-05-26T07:40:19.273Z,100339.45
2019-05-26T07:42:47.677Z,100332.28
2019-05-26T07:45:16.359Z,100330.93
2019-05-26T07:47:44.767Z,100334.16
2019-05-26T07:50:13.634Z,100328.70
2019-05-26T07:52:42.040Z,100326.33
2019-05-26T07:55:10.663Z,100330.09
2019-05-26T07:57:39.147Z,100319.86
2019-05-26T08:00:08.460Z,100319.56
2019-05-26T08:02:36.851Z,100321.16
2019-05-26T08:05:07.172Z,100326.51
2019-05-26T08:07:35.645Z,100323.69
2019-05-26T08:10:05.996Z,100317.23
2019-05-26T08:12:34.395Z,100310.61
2019-05-26T08:15:02.802Z,100311.86
2019-05-26T08:17:31.198Z,100315.06
2019-05-26T08:19:59.614Z,100316.58
2019-05-26T08:22:28.027Z,100305.83
2019-05-26T08:24:56.493Z,100309.70
2019-05-26T08:27:24.902Z,100312.41
2019-05-26T08:29:53.347Z,100310.41
2019-05-26T08:32:21.745Z,100306.53
2019-05-26T08:34:50.193Z,100310.89
2019-05-26T08:37:18.684Z,100300.08
2019-05-26T08:39:48.543Z,100300.19
2019-05-26T08:42:26.751Z,100293.84
2019-05-26T08:44:47.303Z,100291.49
2019-05-26T08:47:15.706Z,100295.62
2019-05-26T08:49:44.115Z,100285.53
2019-05-26T08:52:12.537Z,100286.48
2019-05-26T08:54:40.949Z,100282.33
2019-05-26T08:57:09.367Z,100282.59
2019-05-26T08:59:37.912Z,100287.64
2019-05-26T09:02:06.320Z,100283.88
2019-05-26T09:04:34.731Z,100281.34
2019-05-26T09:07:03.243Z,100281.38
2019-05-26T09:09:31.673Z,100277.02
2019-05-26T09:12:00.093Z,100273.67
2019-05-26T09:14:28.504Z,100273.50
2019-05-26T09:16:56.924Z,100267.92
2019-05-26T09:19:25.337Z,100266.58
2019-05-26T09:21:53.763Z,100255.36
2019-05-26T09:24:22.169Z,100255.71
2019-05-26T09:26:50.591Z,100252.38
2019-05-26T09:29:19.013Z,100255.55
2019-05-26T09:31:47.431Z,100248.34
2019-05-26T09:34:15.837Z,100258.36
2019-05-26T09:36:44.245Z,100249.60
2019-05-26T09:39:12.698Z,100262.55
2019-05-26T09:41:41.150Z,100255.56
2019-05-26T09:44:09.567Z,100261.77
2019-05-26T09:46:37.984Z,100258.56
2019-05-26T09:49:06.517Z,100260.09
2019-05-26T09:51:34.924Z,100256.56
2019-05-26T09:54:03.346Z,100251.02
2019-05-26T09:56:31.752Z,100247.35
2019-05-26T09:59:00.161Z,100247.08
2019-05-26T10:01:28.576Z,100242.27
2019-05-26T10:03:56.982Z,100243.13
2019-05-26T10:06:25.383Z,100246.66
2019-05-26T10:08:53.802Z,100251.09
2019-05-26T10:11:22.210Z,100245.62
2019-05-26T10:13:50.706Z,100246.22
2019-05-26T10:16:19.108Z,100241.01
2019-05-26T10:18:47.519Z,100245.82
2019-05-26T10:21:15.930Z,100250.55
2019-05-26T10:23:44.356Z,100245.56
2019-05-26T10:26:12.752Z,100239.50
2019-05-26T10:28:41.165Z,100246.02
2019-05-26T10:31:09.645Z,100242.48
2019-05-26T10:33:38.048Z,100239.52
2019-05-26T10:36:06.456Z,100237.48
2019-05-26T10:38:34.853Z,100241.04
2019-05-26T10:41:03.264Z,100234.75
2019-05-26T10:43:45.978Z,100245.56
2019-05-26T10:46:01.812Z,100236.58
2019-05-26T10:48:30.215Z,100232.20
2019-05-26T10:50:58.623Z,100235.83
2019-05-26T10:53:27.029Z,100232.52
2019-05-26T10:55:55.437Z,100231.09
2019-05-26T10:58:23.843Z,100227.05
2019-05-26T11:00:52.275Z,100223.09
2019-05-26T11:03:20.678Z,100216.96
2019-05-26T11:05:49.102Z,100211.23
2019-05-26T11:08:17.600Z,100203.27
2019-05-26T11:10:46.005Z,100204.86
2019-05-26T11:13:14.412Z,100202.46
2019-05-26T11:15:42.823Z,100198.14
2019-05-26T11:18:11.226Z,100197.08
2019-05-26T11:20:39.635Z,100205.50
2019-05-26T11:23:08.059Z,100196.03
2019-05-26T11:25:36.462Z,100197.70
2019-05-26T11:28:05.147Z,100199.27
2019-05-26T11:30:33.718Z,100204.04
2019-05-26T11:33:02.221Z,100190.78
2019-05-26T11:35:30.649Z,100201.13
2019-05-26T11:37:59.091Z,100189.75
2019-05-26T11:40:27.551Z,100190.33
2019-05-26T11:42:55.969Z,100189.56
2019-05-26T11:45:24.372Z,100192.52
2019-05-26T11:47:52.783Z,100191.22
2019-05-26T11:50:21.420Z,100188.59
2019-05-26T11:52:49.833Z,100185.90
2019-05-26T11:55:18.909Z,100181.10
2019-05-26T11:57:47.312Z,100177.16
2019-05-26T12:00:17.082Z,100167.85
2019-05-26T12:02:46.157Z,100169.61
2019-05-26T12:05:17.432Z,100163.17
2019-05-26T12:07:45.224Z,100166.97
2019-05-26T12:10:14.740Z,100175.19
2019-05-26T12:12:43.140Z,100162.79
2019-05-26T12:15:12.492Z,100154.52
2019-05-26T12:17:40.901Z,100151.98
2019-05-26T12:20:10.973Z,100153.28
2019-05-26T12:22:39.380Z,100151.86
2019-05-26T12:25:08.720Z,100140.12
2019-05-26T12:27:37.136Z,100137.52
2019-05-26T12:30:07.650Z,100143.59
2019-05-26T12:32:36.075Z,100135.89
2019-05-26T12:35:07.226Z,100132.41
2019-05-26T12:37:35.644Z,100123.02
2019-05-26T12:40:05.885Z,100125.53
2019-05-26T12:42:34.295Z,100117.85
2019-05-26T12:45:02.702Z,100114.68
2019-05-26T12:47:31.110Z,100120.62
2019-05-26T12:49:59.508Z,100132.61
2019-05-26T12:52:27.922Z,100112.84
2019-05-26T12:54:56.400Z,100112.59
2019-05-26T12:57:24.823Z,100119.95
2019-05-26T12:59:53.220Z,100109.36
2019-05-26T13:02:21.637Z,100116.00
2019-05-26T13:04:50.039Z,100113.56
2019-05-26T13:07:18.448Z,100105.67
2019-05-26T13:09:46.851Z,100104.01
2019-05-26T13:12:15.243Z,100096.56
2019-05-26T13:14:43.653Z,100098.65
2019-05-26T13:17:12.053Z,100095.07
2019-05-26T13:19:40.468Z,100097.84
2019-05-26T13:22:08.879Z,100093.19
2019-05-26T13:24:37.289Z,100099.62
2019-05-26T13:27:06.036Z,100096.54
2019-05-26T13:29:34.473Z,100086.44
2019-05-26T13:32:02.882Z,100100.48
2019-05-26T13:34:31.313Z,100083.93
2019-05-26T13:36:59.697Z,100088.14
2019-05-26T13:39:28.104Z,100086.72
2019-05-26T13:41:56.505Z,100087.19
2019-05-26T13:44:24.919Z,100081.94
2019-05-26T13:46:53.317Z,100071.06
2019-05-26T13:49:21.760Z,100072.18
2019-05-26T13:51:50.633Z,100077.31
2019-05-26T13:54:19.099Z,100066.44
2019-05-26T13:56:47.503Z,100072.92
2019-05-26T13:59:15.918Z,100069.27
2019-05-26T14:01:44.327Z,100075.67
2019-05-26T14:04:12.747Z,100067.45
2019-05-26T14:06:41.143Z,100058.47
2019-05-26T14:09:10.462Z,100066.05
2019-05-26T14:11:38.868Z,100067.33
2019-05-26T14:14:07.304Z,100064.10
2019-05-26T14:16:37.051Z,100055.90
2019-05-26T14:19:05.638Z,100053.11
2019-05-26T14:21:34.118Z,100045.13
2019-05-26T14:24:02.534Z,100038.56
2019-05-26T14:26:30.950Z,100040.17
2019-05-26T14:28:59.353Z,100035.03
2019-05-26T14:31:27.768Z,100037.96
2019-05-26T14:33:56.251Z,100034.24
2019-05-26T14:36:24.654Z,100038.56
2019-05-26T14:38:53.068Z,100036.53
2019-05-26T14:41:21.485Z,100034.80
2019-05-26T14:43:49.888Z,100027.91
2019-05-26T14:46:18.286Z,100028.44
2019-05-26T14:48:46.704Z,100028.91
2019-05-26T14:51:15.113Z,100024.98
2019-05-26T14:53:43.527Z,100024.33
2019-05-26T14:56:11.931Z,100024.20
2019-05-26T14:58:40.343Z,100028.40
2019-05-26T15:01:08.740Z,100017.15
2019-05-26T15:03:37.160Z,100024.74
2019-05-26T15:06:06.401Z,100013.84
2019-05-26T15:08:34.850Z,100020.27
2019-05-26T15:11:03.246Z,100017.91
2019-05-26T15:13:31.661Z,100019.69
2019-05-26T15:16:09.406Z,100006.17
2019-05-26T15:18:30.223Z,100013.78
2019-05-26T15:20:58.642Z,100000.22
2019-05-26T15:25:54.479Z,99995.36
2019-05-26T15:28:22.930Z,99994.91
2019-05-26T15:30:51.424Z,99990.88
2019-05-26T15:33:19.828Z,99995.66
2019-05-26T15:35:48.305Z,99990.58
2019-05-26T15:38:16.718Z,99988.77
2019-05-26T15:40:45.113Z,99984.41
2019-05-26T15:43:13.508Z,99978.23
2019-05-26T15:45:41.918Z,99980.95
2019-05-26T15:48:10.377Z,99977.56
2019-05-26T15:50:38.868Z,99980.25
2019-05-26T15:53:07.260Z,99966.28
2019-05-26T15:55:39.144Z,99953.52
2019-05-26T15:58:05.866Z,99964.55
2019-05-26T16:00:34.274Z,99961.05
2019-05-26T16:03:02.668Z,99956.63
2019-05-26T16:05:31.084Z,99950.29
2019-05-26T16:07:59.480Z,99964.58
2019-05-26T16:10:27.900Z,99957.00
2019-05-26T16:12:56.278Z,99951.08
2019-05-26T16:15:24.771Z,99957.36
2019-05-26T16:17:53.163Z,99946.09
2019-05-26T16:20:21.581Z,99952.38
2019-05-26T16:22:50.001Z,99943.91
2019-05-26T16:25:18.925Z,99938.03
2019-05-26T16:27:47.320Z,99942.57
2019-05-26T16:30:16.072Z,99946.21
2019-05-26T16:32:44.453Z,99941.84
2019-05-26T16:35:12.948Z,99937.09
2019-05-26T16:37:41.806Z,99944.49
2019-05-26T16:40:10.380Z,99931.27
2019-05-26T16:42:38.777Z,99930.24
2019-05-26T16:45:08.025Z,99927.42
2019-05-26T16:47:36.420Z,99925.09
2019-05-26T16:50:06.726Z,99925.42
2019-05-26T16:52:35.127Z,99928.42
2019-05-26T16:55:03.976Z,99920.09
2019-05-26T16:57:32.377Z,99914.37
2019-05-26T17:00:00.778Z,99914.73
2019-05-26T17:02:29.195Z,99915.79
2019-05-26T17:04:57.602Z,99912.70
2019-05-26T17:07:26.005Z,99913.09
2019-05-26T17:09:54.487Z,99917.11
2019-05-26T17:12:22.899Z,99914.16
2019-05-26T17:14:51.343Z,99909.91
2019-05-26T17:17:19.749Z,99905.84
2019-05-26T17:19:48.203Z,99896.71
2019-05-26T17:22:16.602Z,99903.02
2019-05-26T17:24:45.074Z,99909.09
2019-05-26T17:27:13.473Z,99897.54
2019-05-26T17:29:41.877Z,99899.28
2019-05-26T17:32:10.437Z,99895.97
2019-05-26T17:34:38.878Z,99890.66
2019-05-26T17:37:07.287Z,99896.48
2019-05-26T17:39:35.695Z,99893.06
2019-05-26T17:42:04.178Z,99898.11
2019-05-26T17:44:32.575Z,99897.35
2019-05-26T17:47:00.985Z,99894.45
2019-05-26T17:49:29.391Z,99890.28
2019-05-26T17:51:57.795Z,99890.39
2019-05-26T17:54:26.188Z,99893.73
2019-05-26T17:56:54.603Z,99884.59
2019-05-26T17:59:23.002Z,99888.80
2019-05-26T18:01:51.414Z,99883.56
2019-05-26T18:04:19.812Z,99882.31
2019-05-26T18:06:48.239Z,99887.97
2019-05-26T18:09:16.618Z,99880.77
2019-05-26T18:11:45.034Z,99885.84
2019-05-26T18:14:13.435Z,99884.36
2019-05-26T18:16:41.858Z,99885.53
2019-05-26T18:19:10.247Z,99874.67
2019-05-26T18:21:38.660Z,99876.26
2019-05-26T18:24:07.064Z,99877.53
2019-05-26T18:26:35.479Z,99878.02
2019-05-26T18:29:03.940Z,99873.98
2019-05-26T18:31:32.375Z,99876.50
2019-05-26T18:34:00.782Z,99869.47
2019-05-26T18:36:29.195Z,99876.88
2019-05-26T18:38:57.610Z,99869.59
2019-05-26T18:41:26.029Z,99865.64
2019-05-26T18:43:54.436Z,99867.44
2019-05-26T18:46:22.872Z,99871.87
2019-05-26T18:48:51.278Z,99883.23
2019-05-26T18:51:19.691Z,99891.49
2019-05-26T18:53:48.094Z,99899.46
2019-05-26T18:56:16.500Z,99905.09
2019-05-26T18:58:44.909Z,99891.67
2019-05-26T19:01:13.358Z,99900.51
2019-05-26T19:03:41.741Z,99907.82
2019-05-26T19:06:10.151Z,99903.02
2019-05-26T19:08:38.569Z,99899.36
2019-05-26T19:11:06.979Z,99903.94
2019-05-26T19:13:35.484Z,99899.89
2019-05-26T19:16:03.959Z,99894.70
2019-05-26T19:18:32.369Z,99899.23
2019-05-26T19:21:00.805Z,99904.88
2019-05-26T19:23:29.226Z,99900.59
2019-05-26T19:25:57.639Z,99888.83
2019-05-26T19:28:26.054Z,99880.56
2019-05-26T19:30:54.458Z,99894.11
2019-05-26T19:33:22.872Z,99883.38
2019-05-26T19:35:51.269Z,99883.14
2019-05-26T19:38:19.699Z,99883.28
2019-05-26T19:40:48.097Z,99882.51
2019-05-26T19:43:16.513Z,99888.66
2019-05-26T19:45:44.922Z,99889.16
2019-05-26T19:48:13.341Z,99881.05
2019-05-26T19:50:41.742Z,99866.22
2019-05-26T19:53:10.183Z,99867.80
2019-05-26T19:55:38.553Z,99873.63
2019-05-26T19:58:07.045Z,99858.39
2019-05-26T20:00:35.486Z,99863.05
2019-05-26T20:03:04.269Z,99858.69
2019-05-26T20:05:32.669Z,99851.47
2019-05-26T20:08:01.183Z,99850.28
2019-05-26T20:10:29.656Z,99844.86
2019-05-26T20:12:58.089Z,99846.57
2019-05-26T20:15:26.484Z,99842.71
2019-05-26T20:17:55.290Z,99846.78
2019-05-26T20:20:23.771Z,99846.57
2019-05-26T20:22:52.184Z,99846.27
2019-05-26T20:25:20.731Z,99843.97
2019-05-26T20:27:49.156Z,99836.72
2019-05-26T20:30:21.236Z,99840.28
2019-05-26T20:32:48.078Z,99841.37
2019-05-26T20:35:16.822Z,99834.84
2019-05-26T20:37:45.441Z,99839.58
2019-05-26T20:40:14.568Z,99836.52
2019-05-26T20:42:42.981Z,99832.14
2019-05-26T20:45:11.565Z,99830.13
2019-05-26T20:47:39.983Z,99819.47
2019-05-26T20:50:08.833Z,99821.57
2019-05-26T20:52:37.246Z,99820.55
2019-05-26T20:55:09.030Z,99815.95
2019-05-26T20:57:37.463Z,99818.60
2019-05-26T21:00:08.264Z,99810.09
2019-05-26T21:02:36.998Z,99801.45
2019-05-26T21:05:07.186Z,99800.58
2019-05-26T21:07:35.608Z,99800.23
2019-05-26T21:10:07.717Z,99790.19
2019-05-26T21:12:36.122Z,99794.53
2019-05-26T21:15:06.791Z,99794.40
2019-05-26T21:17:35.239Z,99794.87
2019-05-26T21:20:07.825Z,99789.84
2019-05-26T21:22:36.248Z,99790.06
2019-05-26T21:25:05.876Z,99794.56
2019-05-26T21:27:34.295Z,99789.88
2019-05-26T21:30:02.774Z,99791.88
2019-05-26T21:32:31.604Z,99789.89
2019-05-26T21:35:00.020Z,99783.00
2019-05-26T21:37:28.411Z,99783.36
2019-05-26T21:39:56.811Z,99785.83
2019-05-26T21:42:25.215Z,99784.33
2019-05-26T21:44:53.644Z,99786.66
2019-05-26T21:47:22.057Z,99784.81
2019-05-26T21:49:50.447Z,99780.60
2019-05-26T21:52:18.842Z,99771.70
2019-05-26T21:54:47.256Z,99780.60
2019-05-26T21:57:15.652Z,99772.17
2019-05-26T21:59:44.058Z,99772.72
2019-05-26T22:02:12.459Z,99769.38
2019-05-26T22:04:40.859Z,99776.94
2019-05-26T22:07:09.252Z,99777.09
2019-05-26T22:09:37.657Z,99768.35
2019-05-26T22:12:06.054Z,99768.03
2019-05-26T22:14:34.543Z,99767.84
2019-05-26T22:17:02.947Z,99769.06
2019-05-26T22:19:31.389Z,99765.67
2019-05-26T22:21:59.843Z,99767.20
2019-05-26T22:24:28.258Z,99758.86
2019-05-26T22:26:56.648Z,99750.98
2019-05-26T22:29:25.056Z,99753.97
2019-05-26T22:31:53.452Z,99745.89
2019-05-26T22:34:21.857Z,99749.25
2019-05-26T22:36:50.258Z,99745.18
2019-05-26T22:39:18.744Z,99741.47
2019-05-26T22:41:47.187Z,99740.59
2019-05-26T22:44:15.594Z,99741.16
2019-05-26T22:46:44.048Z,99740.38
2019-05-26T22:49:12.451Z,99736.09
2019-05-26T22:51:40.911Z,99736.38
2019-05-26T22:54:09.348Z,99731.79
2019-05-26T22:56:37.753Z,99729.31
2019-05-26T22:59:06.270Z,99725.45
2019-05-26T23:01:34.668Z,99735.33
2019-05-26T23:04:03.490Z,99729.24
2019-05-26T23:06:31.913Z,99719.78
2019-05-26T23:09:00.326Z,99729.82
2019-05-26T23:11:28.716Z,99723.08
2019-05-26T23:13:57.115Z,99720.55
2019-05-26T23:16:25.520Z,99723.23
2019-05-26T23:18:53.949Z,99724.60
2019-05-26T23:21:22.346Z,99740.31
2019-05-26T23:23:50.758Z,99731.14
2019-05-26T23:26:19.158Z,99728.27
2019-05-26T23:28:47.571Z,99734.64
2019-05-26T23:31:15.976Z,99728.68
2019-05-26T23:33:44.387Z,99728.00
2019-05-26T23:36:12.784Z,99721.66
2019-05-26T23:38:41.252Z,99725.72
2019-05-26T23:41:09.657Z,99730.23
2019-05-26T23:43:38.056Z,99728.73
2019-05-26T23:46:06.493Z,99726.84
2019-05-26T23:48:34.893Z,99722.88
2019-05-26T23:51:03.300Z,99730.39
2019-05-26T23:53:31.709Z,99736.85
2019-05-26T23:56:00.130Z,99735.21
2019-05-26T23:58:28.534Z,99738.15
